sensor_id;sensor_type;location;lat;lon;timestamp;P1;durP1;ratioP1;P2;durP2;ratioP2
26963;SDS011;14521;48.148;-1.656;2023-04-03T00:01:17;5.15;;;3.40;;
26963;SDS011;14521;48.148;-1.656;2023-04-03T00:04:40;5.78;;;3.55;;
26963;SDS011;14521;48.148;-1.656;2023-04-03T00:08:02;6.10;;;3.30;;
26963;SDS011;14521;48.148;-1.656;2023-04-03T00:11:26;5.25;;;3.05;;
26963;SDS011;14521;48.148;-1.656;2023-04-03T00:14:48;5.32;;;3.13;;
26963;SDS011;14521;48.148;-1.656;2023-04-03T00:18:10;5.88;;;3.40;;
26963;SDS011;14521;48.148;-1.656;2023-04-03T00:21:33;4.60;;;3.05;;
26963;SDS011;14521;48.148;-1.656;2023-04-03T00:24:55;5.30;;;3.53;;
26963;SDS011;14521;48.148;-1.656;2023-04-03T00:28:17;5.45;;;2.75;;
26963;SDS011;14521;48.148;-1.656;2023-04-03T00:31:40;3.45;;;2.95;;
26963;SDS011;14521;48.148;-1.656;2023-04-03T00:35:03;5.03;;;2.95;;
26963;SDS011;14521;48.148;-1.656;2023-04-03T00:38:25;5.40;;;2.97;;
26963;SDS011;14521;48.148;-1.656;2023-04-03T00:41:48;3.58;;;2.80;;
26963;SDS011;14521;48.148;-1.656;2023-04-03T00:48:44;2.97;;;2.30;;
26963;SDS011;14521;48.148;-1.656;2023-04-03T00:52:08;6.55;;;2.83;;
26963;SDS011;14521;48.148;-1.656;2023-04-03T00:55:37;3.00;;;2.75;;
26963;SDS011;14521;48.148;-1.656;2023-04-03T00:59:34;4.07;;;2.65;;
26963;SDS011;14521;48.148;-1.656;2023-04-03T01:02:51;5.40;;;2.67;;
26963;SDS011;14521;48.148;-1.656;2023-04-03T01:06:16;2.95;;;2.55;;
26963;SDS011;14521;48.148;-1.656;2023-04-03T01:09:41;4.50;;;2.10;;
26963;SDS011;14521;48.148;-1.656;2023-04-03T01:13:17;7.45;;;2.33;;
26963;SDS011;14521;48.148;-1.656;2023-04-03T01:16:41;3.90;;;2.65;;
26963;SDS011;14521;48.148;-1.656;2023-04-03T01:23:53;2.72;;;2.40;;
26963;SDS011;14521;48.148;-1.656;2023-04-03T01:27:17;3.78;;;2.50;;
26963;SDS011;14521;48.148;-1.656;2023-04-03T01:30:44;3.67;;;1.95;;
26963;SDS011;14521;48.148;-1.656;2023-04-03T01:34:11;3.58;;;1.63;;
26963;SDS011;14521;48.148;-1.656;2023-04-03T01:37:33;2.45;;;2.15;;
26963;SDS011;14521;48.148;-1.656;2023-04-03T01:40:56;3.90;;;2.58;;
26963;SDS011;14521;48.148;-1.656;2023-04-03T01:44:18;3.88;;;2.15;;
26963;SDS011;14521;48.148;-1.656;2023-04-03T01:47:41;4.20;;;2.17;;
26963;SDS011;14521;48.148;-1.656;2023-04-03T01:51:03;3.65;;;2.05;;
26963;SDS011;14521;48.148;-1.656;2023-04-03T01:54:26;2.38;;;2.03;;
26963;SDS011;14521;48.148;-1.656;2023-04-03T01:57:48;2.22;;;1.88;;
26963;SDS011;14521;48.148;-1.656;2023-04-03T02:01:11;4.38;;;2.30;;
26963;SDS011;14521;48.148;-1.656;2023-04-03T02:04:33;3.65;;;1.58;;
26963;SDS011;14521;48.148;-1.656;2023-04-03T02:07:56;3.05;;;1.73;;
26963;SDS011;14521;48.148;-1.656;2023-04-03T02:11:18;2.47;;;1.70;;
26963;SDS011;14521;48.148;-1.656;2023-04-03T02:14:40;2.85;;;1.70;;
26963;SDS011;14521;48.148;-1.656;2023-04-03T02:18:06;2.88;;;1.77;;
26963;SDS011;14521;48.148;-1.656;2023-04-03T02:21:28;2.15;;;1.95;;
26963;SDS011;14521;48.148;-1.656;2023-04-03T02:24:51;3.55;;;1.50;;
26963;SDS011;14521;48.148;-1.656;2023-04-03T02:28:14;4.13;;;2.08;;
26963;SDS011;14521;48.148;-1.656;2023-04-03T02:31:37;1.65;;;1.35;;
26963;SDS011;14521;48.148;-1.656;2023-04-03T02:35:00;3.85;;;1.75;;
26963;SDS011;14521;48.148;-1.656;2023-04-03T02:38:23;3.00;;;1.60;;
26963;SDS011;14521;48.148;-1.656;2023-04-03T02:41:47;1.90;;;1.60;;
26963;SDS011;14521;48.148;-1.656;2023-04-03T02:45:15;3.30;;;1.40;;
26963;SDS011;14521;48.148;-1.656;2023-04-03T02:48:37;2.70;;;1.65;;
26963;SDS011;14521;48.148;-1.656;2023-04-03T02:52:00;2.47;;;1.42;;
26963;SDS011;14521;48.148;-1.656;2023-04-03T02:55:22;3.08;;;1.50;;
26963;SDS011;14521;48.148;-1.656;2023-04-03T03:02:11;4.53;;;1.50;;
26963;SDS011;14521;48.148;-1.656;2023-04-03T03:05:34;1.85;;;1.42;;
26963;SDS011;14521;48.148;-1.656;2023-04-03T03:08:56;2.05;;;1.33;;
26963;SDS011;14521;48.148;-1.656;2023-04-03T03:12:19;1.60;;;1.30;;
26963;SDS011;14521;48.148;-1.656;2023-04-03T03:15:44;1.17;;;1.08;;
26963;SDS011;14521;48.148;-1.656;2023-04-03T03:19:06;2.65;;;1.33;;
26963;SDS011;14521;48.148;-1.656;2023-04-03T03:22:29;1.25;;;1.15;;
26963;SDS011;14521;48.148;-1.656;2023-04-03T03:25:57;2.87;;;1.10;;
26963;SDS011;14521;48.148;-1.656;2023-04-03T03:29:21;1.27;;;1.17;;
26963;SDS011;14521;48.148;-1.656;2023-04-03T03:32:44;2.83;;;1.10;;
26963;SDS011;14521;48.148;-1.656;2023-04-03T03:36:06;2.17;;;1.30;;
26963;SDS011;14521;48.148;-1.656;2023-04-03T03:39:30;5.75;;;1.38;;
26963;SDS011;14521;48.148;-1.656;2023-04-03T03:42:52;2.75;;;1.38;;
26963;SDS011;14521;48.148;-1.656;2023-04-03T03:46:15;2.38;;;1.27;;
26963;SDS011;14521;48.148;-1.656;2023-04-03T03:49:38;2.92;;;1.20;;
26963;SDS011;14521;48.148;-1.656;2023-04-03T03:53:00;2.75;;;1.30;;
26963;SDS011;14521;48.148;-1.656;2023-04-03T03:56:23;2.00;;;1.15;;
26963;SDS011;14521;48.148;-1.656;2023-04-03T03:59:46;2.05;;;1.13;;
26963;SDS011;14521;48.148;-1.656;2023-04-03T04:03:12;1.70;;;1.05;;
26963;SDS011;14521;48.148;-1.656;2023-04-03T04:06:35;2.05;;;1.15;;
26963;SDS011;14521;48.148;-1.656;2023-04-03T04:10:01;5.10;;;1.40;;
26963;SDS011;14521;48.148;-1.656;2023-04-03T04:13:24;1.52;;;0.95;;
26963;SDS011;14521;48.148;-1.656;2023-04-03T04:16:47;1.65;;;0.90;;
26963;SDS011;14521;48.148;-1.656;2023-04-03T04:20:15;1.02;;;0.93;;
26963;SDS011;14521;48.148;-1.656;2023-04-03T04:23:38;1.98;;;0.82;;
26963;SDS011;14521;48.148;-1.656;2023-04-03T04:27:00;1.20;;;1.10;;
26963;SDS011;14521;48.148;-1.656;2023-04-03T04:30:25;1.60;;;0.80;;
26963;SDS011;14521;48.148;-1.656;2023-04-03T04:33:50;1.40;;;1.30;;
26963;SDS011;14521;48.148;-1.656;2023-04-03T04:37:13;1.40;;;0.95;;
26963;SDS011;14521;48.148;-1.656;2023-04-03T04:40:35;2.45;;;1.10;;
26963;SDS011;14521;48.148;-1.656;2023-04-03T04:44:00;2.13;;;0.90;;
26963;SDS011;14521;48.148;-1.656;2023-04-03T04:47:22;3.20;;;1.02;;
26963;SDS011;14521;48.148;-1.656;2023-04-03T04:50:45;1.73;;;0.80;;
26963;SDS011;14521;48.148;-1.656;2023-04-03T04:54:08;2.22;;;0.93;;
26963;SDS011;14521;48.148;-1.656;2023-04-03T04:57:31;3.70;;;1.20;;
26963;SDS011;14521;48.148;-1.656;2023-04-03T05:04:36;2.60;;;0.95;;
26963;SDS011;14521;48.148;-1.656;2023-04-03T05:08:05;1.30;;;0.85;;
26963;SDS011;14521;48.148;-1.656;2023-04-03T05:11:28;1.45;;;0.82;;
26963;SDS011;14521;48.148;-1.656;2023-04-03T05:14:50;1.27;;;0.77;;
26963;SDS011;14521;48.148;-1.656;2023-04-03T05:18:13;1.20;;;0.73;;
26963;SDS011;14521;48.148;-1.656;2023-04-03T05:21:36;0.70;;;0.60;;
26963;SDS011;14521;48.148;-1.656;2023-04-03T05:25:03;1.60;;;0.70;;
26963;SDS011;14521;48.148;-1.656;2023-04-03T05:28:27;6.03;;;0.70;;
26963;SDS011;14521;48.148;-1.656;2023-04-03T05:31:49;1.23;;;0.70;;
26963;SDS011;14521;48.148;-1.656;2023-04-03T05:35:12;1.90;;;0.80;;
26963;SDS011;14521;48.148;-1.656;2023-04-03T05:38:36;1.63;;;0.60;;
26963;SDS011;14521;48.148;-1.656;2023-04-03T05:41:59;0.82;;;0.57;;
26963;SDS011;14521;48.148;-1.656;2023-04-03T05:45:22;1.13;;;0.60;;
26963;SDS011;14521;48.148;-1.656;2023-04-03T05:48:45;1.25;;;0.80;;
26963;SDS011;14521;48.148;-1.656;2023-04-03T05:52:21;1.05;;;0.60;;
26963;SDS011;14521;48.148;-1.656;2023-04-03T05:55:48;1.63;;;0.65;;
26963;SDS011;14521;48.148;-1.656;2023-04-03T05:59:11;0.70;;;0.70;;
26963;SDS011;14521;48.148;-1.656;2023-04-03T06:02:33;1.27;;;0.85;;
26963;SDS011;14521;48.148;-1.656;2023-04-03T06:05:57;2.15;;;1.00;;
26963;SDS011;14521;48.148;-1.656;2023-04-03T06:09:20;2.33;;;1.10;;
26963;SDS011;14521;48.148;-1.656;2023-04-03T06:12:45;4.97;;;0.80;;
26963;SDS011;14521;48.148;-1.656;2023-04-03T06:16:09;8.18;;;0.60;;
26963;SDS011;14521;48.148;-1.656;2023-04-03T06:19:37;3.10;;;0.80;;
26963;SDS011;14521;48.148;-1.656;2023-04-03T06:22:59;2.72;;;0.70;;
26963;SDS011;14521;48.148;-1.656;2023-04-03T06:26:22;1.33;;;1.13;;
26963;SDS011;14521;48.148;-1.656;2023-04-03T06:29:45;2.08;;;0.93;;
26963;SDS011;14521;48.148;-1.656;2023-04-03T06:33:07;1.02;;;0.65;;
26963;SDS011;14521;48.148;-1.656;2023-04-03T06:36:29;2.03;;;1.15;;
26963;SDS011;14521;48.148;-1.656;2023-04-03T06:39:52;2.40;;;1.70;;
26963;SDS011;14521;48.148;-1.656;2023-04-03T06:43:14;2.47;;;1.60;;
26963;SDS011;14521;48.148;-1.656;2023-04-03T06:46:37;2.28;;;1.02;;
26963;SDS011;14521;48.148;-1.656;2023-04-03T06:50:01;1.05;;;0.90;;
26963;SDS011;14521;48.148;-1.656;2023-04-03T06:53:23;3.35;;;1.10;;
26963;SDS011;14521;48.148;-1.656;2023-04-03T06:56:45;5.03;;;1.08;;
26963;SDS011;14521;48.148;-1.656;2023-04-03T07:00:08;1.23;;;1.10;;
26963;SDS011;14521;48.148;-1.656;2023-04-03T07:03:31;2.67;;;1.27;;
26963;SDS011;14521;48.148;-1.656;2023-04-03T07:06:55;1.90;;;1.23;;
26963;SDS011;14521;48.148;-1.656;2023-04-03T07:10:18;1.88;;;1.20;;
26963;SDS011;14521;48.148;-1.656;2023-04-03T07:13:40;2.60;;;1.02;;
26963;SDS011;14521;48.148;-1.656;2023-04-03T07:17:02;1.83;;;1.10;;
26963;SDS011;14521;48.148;-1.656;2023-04-03T07:20:25;1.88;;;1.27;;
26963;SDS011;14521;48.148;-1.656;2023-04-03T07:23:47;7.82;;;1.40;;
26963;SDS011;14521;48.148;-1.656;2023-04-03T07:27:14;1.85;;;1.30;;
26963;SDS011;14521;48.148;-1.656;2023-04-03T07:30:44;3.55;;;1.17;;
26963;SDS011;14521;48.148;-1.656;2023-04-03T07:34:07;2.20;;;1.30;;
26963;SDS011;14521;48.148;-1.656;2023-04-03T07:37:29;1.90;;;1.40;;
26963;SDS011;14521;48.148;-1.656;2023-04-03T07:40:52;2.72;;;1.00;;
26963;SDS011;14521;48.148;-1.656;2023-04-03T07:44:14;4.38;;;0.95;;
26963;SDS011;14521;48.148;-1.656;2023-04-03T07:47:37;4.10;;;1.08;;
26963;SDS011;14521;48.148;-1.656;2023-04-03T07:50:59;1.83;;;0.80;;
26963;SDS011;14521;48.148;-1.656;2023-04-03T07:54:23;1.75;;;1.02;;
26963;SDS011;14521;48.148;-1.656;2023-04-03T07:57:45;1.58;;;1.10;;
26963;SDS011;14521;48.148;-1.656;2023-04-03T08:01:08;2.42;;;0.90;;
26963;SDS011;14521;48.148;-1.656;2023-04-03T08:04:31;4.30;;;0.93;;
26963;SDS011;14521;48.148;-1.656;2023-04-03T08:07:54;1.27;;;0.77;;
26963;SDS011;14521;48.148;-1.656;2023-04-03T08:11:16;1.33;;;1.00;;
26963;SDS011;14521;48.148;-1.656;2023-04-03T08:14:40;1.63;;;0.98;;
26963;SDS011;14521;48.148;-1.656;2023-04-03T08:18:02;3.08;;;1.20;;
26963;SDS011;14521;48.148;-1.656;2023-04-03T08:21:25;1.15;;;1.05;;
26963;SDS011;14521;48.148;-1.656;2023-04-03T08:24:47;5.38;;;1.35;;
26963;SDS011;14521;48.148;-1.656;2023-04-03T08:28:20;6.18;;;0.98;;
26963;SDS011;14521;48.148;-1.656;2023-04-03T08:31:42;2.10;;;1.00;;
26963;SDS011;14521;48.148;-1.656;2023-04-03T08:35:05;3.20;;;1.15;;
26963;SDS011;14521;48.148;-1.656;2023-04-03T08:38:27;1.25;;;1.00;;
26963;SDS011;14521;48.148;-1.656;2023-04-03T08:41:50;4.70;;;1.27;;
26963;SDS011;14521;48.148;-1.656;2023-04-03T08:48:41;1.27;;;1.00;;
26963;SDS011;14521;48.148;-1.656;2023-04-03T08:52:08;1.67;;;1.10;;
26963;SDS011;14521;48.148;-1.656;2023-04-03T08:55:33;8.48;;;1.35;;
26963;SDS011;14521;48.148;-1.656;2023-04-03T08:59:04;2.88;;;1.70;;
26963;SDS011;14521;48.148;-1.656;2023-04-03T09:02:38;3.10;;;1.20;;
26963;SDS011;14521;48.148;-1.656;2023-04-03T09:06:07;0.85;;;0.85;;
26963;SDS011;14521;48.148;-1.656;2023-04-03T09:09:36;2.25;;;1.23;;
26963;SDS011;14521;48.148;-1.656;2023-04-03T09:13:24;6.20;;;0.98;;
26963;SDS011;14521;48.148;-1.656;2023-04-03T09:24:32;1.45;;;1.30;;
26963;SDS011;14521;48.148;-1.656;2023-04-03T09:27:55;1.30;;;1.00;;
26963;SDS011;14521;48.148;-1.656;2023-04-03T09:31:19;2.75;;;1.13;;
26963;SDS011;14521;48.148;-1.656;2023-04-03T09:34:46;4.47;;;1.30;;
26963;SDS011;14521;48.148;-1.656;2023-04-03T09:41:33;2.25;;;1.02;;
26963;SDS011;14521;48.148;-1.656;2023-04-03T09:44:56;7.03;;;0.90;;
26963;SDS011;14521;48.148;-1.656;2023-04-03T09:48:25;1.83;;;0.90;;
26963;SDS011;14521;48.148;-1.656;2023-04-03T09:51:49;1.52;;;0.90;;
26963;SDS011;14521;48.148;-1.656;2023-04-03T09:59:02;3.42;;;1.13;;
26963;SDS011;14521;48.148;-1.656;2023-04-03T10:05:59;1.27;;;1.20;;
26963;SDS011;14521;48.148;-1.656;2023-04-03T10:09:22;1.33;;;1.20;;
26963;SDS011;14521;48.148;-1.656;2023-04-03T10:12:47;3.90;;;1.00;;
26963;SDS011;14521;48.148;-1.656;2023-04-03T10:16:12;9.07;;;1.20;;
26963;SDS011;14521;48.148;-1.656;2023-04-03T10:19:40;2.40;;;1.30;;
26963;SDS011;14521;48.148;-1.656;2023-04-03T10:26:58;2.70;;;1.10;;
26963;SDS011;14521;48.148;-1.656;2023-04-03T10:37:47;1.50;;;1.20;;
26963;SDS011;14521;48.148;-1.656;2023-04-03T10:41:24;10.68;;;5.60;;
26963;SDS011;14521;48.148;-1.656;2023-04-03T10:45:19;32.40;;;12.48;;
26963;SDS011;14521;48.148;-1.656;2023-04-03T10:52:22;17.70;;;9.02;;
26963;SDS011;14521;48.148;-1.656;2023-04-03T10:55:54;23.35;;;11.95;;
26963;SDS011;14521;48.148;-1.656;2023-04-03T11:03:13;21.70;;;12.63;;
26963;SDS011;14521;48.148;-1.656;2023-04-03T11:06:54;17.38;;;11.98;;
26963;SDS011;14521;48.148;-1.656;2023-04-03T11:14:14;18.67;;;10.23;;
26963;SDS011;14521;48.148;-1.656;2023-04-03T11:17:41;21.27;;;10.25;;
26963;SDS011;14521;48.148;-1.656;2023-04-03T11:21:17;18.63;;;10.15;;
26963;SDS011;14521;48.148;-1.656;2023-04-03T11:24:54;13.70;;;8.73;;
26963;SDS011;14521;48.148;-1.656;2023-04-03T11:28:25;9.70;;;7.55;;
26963;SDS011;14521;48.148;-1.656;2023-04-03T11:35:19;9.68;;;6.75;;
26963;SDS011;14521;48.148;-1.656;2023-04-03T11:38:43;8.25;;;6.25;;
26963;SDS011;14521;48.148;-1.656;2023-04-03T11:42:40;10.15;;;5.43;;
26963;SDS011;14521;48.148;-1.656;2023-04-03T11:46:08;5.43;;;4.95;;
26963;SDS011;14521;48.148;-1.656;2023-04-03T11:49:53;6.63;;;4.40;;
26963;SDS011;14521;48.148;-1.656;2023-04-03T11:53:26;5.82;;;5.18;;
26963;SDS011;14521;48.148;-1.656;2023-04-03T11:57:09;5.15;;;3.78;;
26963;SDS011;14521;48.148;-1.656;2023-04-03T12:01:11;4.60;;;4.20;;
26963;SDS011;14521;48.148;-1.656;2023-04-03T12:08:52;6.03;;;3.55;;
26963;SDS011;14521;48.148;-1.656;2023-04-03T12:15:49;4.25;;;3.00;;
26963;SDS011;14521;48.148;-1.656;2023-04-03T12:23:07;4.85;;;2.80;;
26963;SDS011;14521;48.148;-1.656;2023-04-03T12:30:27;5.85;;;2.65;;
26963;SDS011;14521;48.148;-1.656;2023-04-03T12:45:14;5.25;;;2.17;;
26963;SDS011;14521;48.148;-1.656;2023-04-03T12:48:39;2.40;;;2.20;;
26963;SDS011;14521;48.148;-1.656;2023-04-03T12:52:44;6.40;;;2.47;;
26963;SDS011;14521;48.148;-1.656;2023-04-03T12:59:45;3.35;;;2.05;;
26963;SDS011;14521;48.148;-1.656;2023-04-03T13:03:19;1.92;;;1.60;;
26963;SDS011;14521;48.148;-1.656;2023-04-03T13:06:45;2.08;;;1.73;;
26963;SDS011;14521;48.148;-1.656;2023-04-03T13:13:30;4.03;;;2.10;;
26963;SDS011;14521;48.148;-1.656;2023-04-03T13:16:56;1.85;;;1.75;;
26963;SDS011;14521;48.148;-1.656;2023-04-03T13:23:45;2.13;;;1.85;;
26963;SDS011;14521;48.148;-1.656;2023-04-03T13:27:12;1.92;;;1.80;;
26963;SDS011;14521;48.148;-1.656;2023-04-03T13:30:36;1.75;;;1.65;;
26963;SDS011;14521;48.148;-1.656;2023-04-03T13:37:32;1.92;;;1.83;;
26963;SDS011;14521;48.148;-1.656;2023-04-03T13:40:58;1.70;;;1.60;;
26963;SDS011;14521;48.148;-1.656;2023-04-03T13:44:31;1.48;;;1.38;;
26963;SDS011;14521;48.148;-1.656;2023-04-03T13:48:10;1.60;;;1.50;;
26963;SDS011;14521;48.148;-1.656;2023-04-03T13:51:44;2.17;;;1.58;;
26963;SDS011;14521;48.148;-1.656;2023-04-03T13:55:26;2.08;;;1.60;;
26963;SDS011;14521;48.148;-1.656;2023-04-03T13:59:35;1.50;;;1.40;;
26963;SDS011;14521;48.148;-1.656;2023-04-03T14:02:38;1.52;;;1.40;;
26963;SDS011;14521;48.148;-1.656;2023-04-03T14:06:01;1.48;;;1.38;;
26963;SDS011;14521;48.148;-1.656;2023-04-03T14:09:27;1.45;;;1.35;;
26963;SDS011;14521;48.148;-1.656;2023-04-03T14:12:49;1.52;;;1.42;;
26963;SDS011;14521;48.148;-1.656;2023-04-03T14:16:20;1.73;;;1.30;;
26963;SDS011;14521;48.148;-1.656;2023-04-03T14:19:45;1.48;;;1.38;;
26963;SDS011;14521;48.148;-1.656;2023-04-03T14:23:08;3.30;;;1.35;;
26963;SDS011;14521;48.148;-1.656;2023-04-03T14:26:33;1.10;;;1.10;;
26963;SDS011;14521;48.148;-1.656;2023-04-03T14:29:57;1.13;;;1.10;;
26963;SDS011;14521;48.148;-1.656;2023-04-03T14:33:21;2.25;;;1.33;;
26963;SDS011;14521;48.148;-1.656;2023-04-03T14:36:44;1.50;;;1.25;;
26963;SDS011;14521;48.148;-1.656;2023-04-03T14:40:08;1.38;;;1.27;;
26963;SDS011;14521;48.148;-1.656;2023-04-03T14:43:34;2.55;;;1.25;;
26963;SDS011;14521;48.148;-1.656;2023-04-03T14:46:56;1.25;;;1.15;;
26963;SDS011;14521;48.148;-1.656;2023-04-03T14:50:20;1.13;;;1.13;;
26963;SDS011;14521;48.148;-1.656;2023-04-03T14:53:44;1.30;;;1.20;;
26963;SDS011;14521;48.148;-1.656;2023-04-03T14:57:08;1.70;;;1.50;;
26963;SDS011;14521;48.148;-1.656;2023-04-03T15:00:33;2.53;;;1.20;;
26963;SDS011;14521;48.148;-1.656;2023-04-03T15:03:56;1.10;;;1.00;;
26963;SDS011;14521;48.148;-1.656;2023-04-03T15:07:18;1.20;;;1.10;;
26963;SDS011;14521;48.148;-1.656;2023-04-03T15:10:41;1.35;;;1.20;;
26963;SDS011;14521;48.148;-1.656;2023-04-03T15:14:03;2.03;;;1.48;;
26963;SDS011;14521;48.148;-1.656;2023-04-03T15:17:25;1.88;;;1.40;;
26963;SDS011;14521;48.148;-1.656;2023-04-03T15:20:47;1.60;;;1.50;;
26963;SDS011;14521;48.148;-1.656;2023-04-03T15:24:10;1.30;;;1.20;;
26963;SDS011;14521;48.148;-1.656;2023-04-03T15:27:33;1.40;;;1.30;;
26963;SDS011;14521;48.148;-1.656;2023-04-03T15:30:55;1.70;;;1.10;;
26963;SDS011;14521;48.148;-1.656;2023-04-03T15:34:18;1.40;;;1.30;;
26963;SDS011;14521;48.148;-1.656;2023-04-03T15:37:43;1.20;;;1.10;;
26963;SDS011;14521;48.148;-1.656;2023-04-03T15:41:06;1.30;;;1.20;;
26963;SDS011;14521;48.148;-1.656;2023-04-03T15:44:29;1.38;;;1.20;;
26963;SDS011;14521;48.148;-1.656;2023-04-03T15:47:51;1.52;;;1.42;;
26963;SDS011;14521;48.148;-1.656;2023-04-03T15:51:13;1.00;;;1.00;;
26963;SDS011;14521;48.148;-1.656;2023-04-03T15:54:36;1.23;;;1.10;;
26963;SDS011;14521;48.148;-1.656;2023-04-03T15:57:58;1.02;;;1.00;;
26963;SDS011;14521;48.148;-1.656;2023-04-03T16:01:21;1.05;;;1.05;;
26963;SDS011;14521;48.148;-1.656;2023-04-03T16:04:43;1.48;;;1.30;;
26963;SDS011;14521;48.148;-1.656;2023-04-03T16:08:06;1.50;;;1.40;;
26963;SDS011;14521;48.148;-1.656;2023-04-03T16:11:29;2.78;;;1.02;;
26963;SDS011;14521;48.148;-1.656;2023-04-03T16:14:51;1.60;;;1.25;;
26963;SDS011;14521;48.148;-1.656;2023-04-03T16:18:14;1.30;;;1.20;;
26963;SDS011;14521;48.148;-1.656;2023-04-03T16:21:36;1.15;;;1.08;;
26963;SDS011;14521;48.148;-1.656;2023-04-03T16:24:58;2.70;;;1.38;;
26963;SDS011;14521;48.148;-1.656;2023-04-03T16:28:21;1.00;;;1.00;;
26963;SDS011;14521;48.148;-1.656;2023-04-03T16:31:43;1.15;;;0.90;;
26963;SDS011;14521;48.148;-1.656;2023-04-03T16:35:06;1.02;;;1.02;;
26963;SDS011;14521;48.148;-1.656;2023-04-03T16:38:29;1.40;;;1.25;;
26963;SDS011;14521;48.148;-1.656;2023-04-03T16:41:51;1.23;;;1.02;;
26963;SDS011;14521;48.148;-1.656;2023-04-03T16:45:14;4.28;;;1.10;;
26963;SDS011;14521;48.148;-1.656;2023-04-03T16:48:36;1.55;;;1.00;;
26963;SDS011;14521;48.148;-1.656;2023-04-03T16:51:59;1.00;;;1.00;;
26963;SDS011;14521;48.148;-1.656;2023-04-03T16:55:22;2.67;;;1.05;;
26963;SDS011;14521;48.148;-1.656;2023-04-03T16:58:44;1.58;;;0.80;;
26963;SDS011;14521;48.148;-1.656;2023-04-03T17:02:07;3.15;;;2.85;;
26963;SDS011;14521;48.148;-1.656;2023-04-03T17:05:29;4.05;;;3.10;;
26963;SDS011;14521;48.148;-1.656;2023-04-03T17:08:53;3.78;;;2.58;;
26963;SDS011;14521;48.148;-1.656;2023-04-03T17:12:22;3.10;;;2.40;;
26963;SDS011;14521;48.148;-1.656;2023-04-03T17:15:44;2.85;;;2.65;;
26963;SDS011;14521;48.148;-1.656;2023-04-03T17:19:06;2.92;;;2.72;;
26963;SDS011;14521;48.148;-1.656;2023-04-03T17:22:29;2.33;;;2.13;;
26963;SDS011;14521;48.148;-1.656;2023-04-03T17:25:53;10.35;;;3.97;;
26963;SDS011;14521;48.148;-1.656;2023-04-03T17:29:16;33.28;;;7.53;;
26963;SDS011;14521;48.148;-1.656;2023-04-03T17:32:38;18.85;;;6.72;;
26963;SDS011;14521;48.148;-1.656;2023-04-03T17:36:00;53.33;;;11.30;;
26963;SDS011;14521;48.148;-1.656;2023-04-03T17:39:25;36.30;;;10.33;;
26963;SDS011;14521;48.148;-1.656;2023-04-03T17:42:47;33.30;;;10.38;;
26963;SDS011;14521;48.148;-1.656;2023-04-03T17:46:10;36.25;;;9.35;;
26963;SDS011;14521;48.148;-1.656;2023-04-03T17:49:32;26.20;;;8.55;;
26963;SDS011;14521;48.148;-1.656;2023-04-03T17:52:55;32.15;;;8.95;;
26963;SDS011;14521;48.148;-1.656;2023-04-03T17:56:21;22.35;;;8.32;;
26963;SDS011;14521;48.148;-1.656;2023-04-03T17:59:47;22.55;;;7.55;;
26963;SDS011;14521;48.148;-1.656;2023-04-03T18:03:10;18.73;;;6.50;;
26963;SDS011;14521;48.148;-1.656;2023-04-03T18:06:35;21.75;;;6.22;;
26963;SDS011;14521;48.148;-1.656;2023-04-03T18:10:05;15.68;;;6.18;;
26963;SDS011;14521;48.148;-1.656;2023-04-03T18:13:29;14.98;;;5.93;;
26963;SDS011;14521;48.148;-1.656;2023-04-03T18:16:52;15.80;;;6.03;;
26963;SDS011;14521;48.148;-1.656;2023-04-03T18:20:17;9.73;;;6.07;;
26963;SDS011;14521;48.148;-1.656;2023-04-03T18:23:41;14.45;;;6.50;;
26963;SDS011;14521;48.148;-1.656;2023-04-03T18:27:12;17.75;;;5.40;;
26963;SDS011;14521;48.148;-1.656;2023-04-03T18:30:36;13.02;;;5.65;;
26963;SDS011;14521;48.148;-1.656;2023-04-03T18:33:59;11.82;;;4.82;;
26963;SDS011;14521;48.148;-1.656;2023-04-03T18:37:21;11.60;;;4.72;;
26963;SDS011;14521;48.148;-1.656;2023-04-03T18:40:44;11.05;;;4.28;;
26963;SDS011;14521;48.148;-1.656;2023-04-03T18:44:09;12.65;;;4.30;;
26963;SDS011;14521;48.148;-1.656;2023-04-03T18:47:33;8.77;;;4.20;;
26963;SDS011;14521;48.148;-1.656;2023-04-03T18:50:57;10.20;;;4.10;;
26963;SDS011;14521;48.148;-1.656;2023-04-03T18:54:19;6.82;;;3.78;;
26963;SDS011;14521;48.148;-1.656;2023-04-03T18:57:42;10.23;;;4.00;;
26963;SDS011;14521;48.148;-1.656;2023-04-03T19:01:04;9.60;;;3.97;;
26963;SDS011;14521;48.148;-1.656;2023-04-03T19:04:27;10.15;;;3.70;;
26963;SDS011;14521;48.148;-1.656;2023-04-03T19:07:50;12.05;;;3.92;;
26963;SDS011;14521;48.148;-1.656;2023-04-03T19:11:14;9.88;;;4.03;;
26963;SDS011;14521;48.148;-1.656;2023-04-03T19:14:37;8.73;;;3.90;;
26963;SDS011;14521;48.148;-1.656;2023-04-03T19:17:59;6.72;;;4.03;;
26963;SDS011;14521;48.148;-1.656;2023-04-03T19:21:22;8.18;;;3.63;;
26963;SDS011;14521;48.148;-1.656;2023-04-03T19:24:44;7.43;;;3.72;;
26963;SDS011;14521;48.148;-1.656;2023-04-03T19:28:10;6.90;;;3.00;;
26963;SDS011;14521;48.148;-1.656;2023-04-03T19:31:34;6.65;;;3.55;;
26963;SDS011;14521;48.148;-1.656;2023-04-03T19:34:59;7.10;;;3.40;;
26963;SDS011;14521;48.148;-1.656;2023-04-03T19:38:22;7.53;;;3.10;;
26963;SDS011;14521;48.148;-1.656;2023-04-03T19:41:44;6.97;;;2.95;;
26963;SDS011;14521;48.148;-1.656;2023-04-03T19:45:08;7.07;;;2.60;;
26963;SDS011;14521;48.148;-1.656;2023-04-03T19:48:32;6.88;;;2.83;;
26963;SDS011;14521;48.148;-1.656;2023-04-03T19:51:54;8.20;;;3.70;;
26963;SDS011;14521;48.148;-1.656;2023-04-03T19:55:17;4.72;;;2.95;;
26963;SDS011;14521;48.148;-1.656;2023-04-03T19:58:39;4.28;;;2.70;;
26963;SDS011;14521;48.148;-1.656;2023-04-03T20:02:01;4.53;;;2.72;;
26963;SDS011;14521;48.148;-1.656;2023-04-03T20:05:24;8.20;;;2.92;;
26963;SDS011;14521;48.148;-1.656;2023-04-03T20:08:46;3.22;;;2.40;;
26963;SDS011;14521;48.148;-1.656;2023-04-03T20:12:09;3.55;;;2.40;;
26963;SDS011;14521;48.148;-1.656;2023-04-03T20:15:31;5.15;;;2.50;;
26963;SDS011;14521;48.148;-1.656;2023-04-03T20:19:00;3.60;;;2.70;;
26963;SDS011;14521;48.148;-1.656;2023-04-03T20:22:23;4.13;;;2.15;;
26963;SDS011;14521;48.148;-1.656;2023-04-03T20:25:46;4.70;;;2.60;;
26963;SDS011;14521;48.148;-1.656;2023-04-03T20:29:27;3.15;;;2.00;;
26963;SDS011;14521;48.148;-1.656;2023-04-03T20:32:49;5.82;;;2.33;;
26963;SDS011;14521;48.148;-1.656;2023-04-03T20:36:12;2.53;;;2.30;;
26963;SDS011;14521;48.148;-1.656;2023-04-03T20:39:35;4.95;;;2.38;;
26963;SDS011;14521;48.148;-1.656;2023-04-03T20:42:58;3.95;;;2.42;;
26963;SDS011;14521;48.148;-1.656;2023-04-03T20:46:22;2.77;;;2.07;;
26963;SDS011;14521;48.148;-1.656;2023-04-03T20:53:30;3.58;;;2.58;;
26963;SDS011;14521;48.148;-1.656;2023-04-03T20:56:53;3.17;;;2.63;;
26963;SDS011;14521;48.148;-1.656;2023-04-03T21:00:15;4.50;;;1.95;;
26963;SDS011;14521;48.148;-1.656;2023-04-03T21:03:39;2.97;;;2.30;;
26963;SDS011;14521;48.148;-1.656;2023-04-03T21:22:40;3.37;;;2.90;;
26963;SDS011;14521;48.148;-1.656;2023-04-03T21:26:05;3.55;;;1.90;;
26963;SDS011;14521;48.148;-1.656;2023-04-03T21:29:27;2.13;;;1.90;;
26963;SDS011;14521;48.148;-1.656;2023-04-03T21:32:50;3.30;;;2.00;;
26963;SDS011;14521;48.148;-1.656;2023-04-03T21:36:12;7.15;;;2.10;;
26963;SDS011;14521;48.148;-1.656;2023-04-03T21:39:35;1.90;;;1.80;;
26963;SDS011;14521;48.148;-1.656;2023-04-03T21:42:59;1.83;;;1.73;;
26963;SDS011;14521;48.148;-1.656;2023-04-03T21:46:21;2.13;;;1.92;;
26963;SDS011;14521;48.148;-1.656;2023-04-03T21:49:44;1.88;;;1.77;;
26963;SDS011;14521;48.148;-1.656;2023-04-03T21:53:08;2.28;;;1.70;;
26963;SDS011;14521;48.148;-1.656;2023-04-03T21:56:30;4.38;;;1.90;;
26963;SDS011;14521;48.148;-1.656;2023-04-03T21:59:52;3.03;;;2.08;;
26963;SDS011;14521;48.148;-1.656;2023-04-03T22:03:18;4.95;;;2.17;;
26963;SDS011;14521;48.148;-1.656;2023-04-03T22:06:42;2.10;;;2.00;;
26963;SDS011;14521;48.148;-1.656;2023-04-03T22:10:05;3.65;;;2.22;;
26963;SDS011;14521;48.148;-1.656;2023-04-03T22:13:28;2.30;;;2.20;;
26963;SDS011;14521;48.148;-1.656;2023-04-03T22:16:51;4.45;;;2.05;;